Terminal Aerodrome Forecast
Issued by NWS

Home | Current Version | Previous Version | Text Only | Print | Product List | Glossary On
Versions: 1 2 3 4 5 6 7 8 9 10 11 12 13 14 15 16
514
FTUS42 KMLB 312330
TAFLEE
TAF
KLEE 312330Z 0100/0124 29004KT P6SM FEW060 BKN100
     FM010400 VRB02KT P6SM SCT250
     FM011400 21003KT P6SM FEW030
     FM012100 17007KT P6SM VCTS SCT040CB=

USA.gov is the U.S. government's official web portal to all federal, state and local government web resources and services.